sensor_id;sensor_type;location;lat;lon;timestamp;temperature;humidity
8872;DHT22;4472;52.092;9.820;2023-12-22T00:00:40;5.20;99.90
8872;DHT22;4472;52.092;9.820;2023-12-22T00:03:27;5.30;99.90
8872;DHT22;4472;52.092;9.820;2023-12-22T00:06:14;5.30;99.90
8872;DHT22;4472;52.092;9.820;2023-12-22T00:09:01;5.30;99.90
8872;DHT22;4472;52.092;9.820;2023-12-22T00:11:48;5.30;99.90
8872;DHT22;4472;52.092;9.820;2023-12-22T00:14:36;5.20;99.90
8872;DHT22;4472;52.092;9.820;2023-12-22T00:17:26;5.00;99.90
8872;DHT22;4472;52.092;9.820;2023-12-22T00:20:13;4.80;99.90
8872;DHT22;4472;52.092;9.820;2023-12-22T00:23:00;4.60;99.90
8872;DHT22;4472;52.092;9.820;2023-12-22T00:25:54;4.40;99.90
8872;DHT22;4472;52.092;9.820;2023-12-22T00:28:41;4.30;99.90
8872;DHT22;4472;52.092;9.820;2023-12-22T00:31:30;4.30;99.90
8872;DHT22;4472;52.092;9.820;2023-12-22T00:34:17;4.30;99.90
8872;DHT22;4472;52.092;9.820;2023-12-22T00:37:05;4.30;99.90
8872;DHT22;4472;52.092;9.820;2023-12-22T00:39:52;4.30;99.90
8872;DHT22;4472;52.092;9.820;2023-12-22T00:42:39;4.20;99.90
8872;DHT22;4472;52.092;9.820;2023-12-22T00:45:26;4.20;99.90
8872;DHT22;4472;52.092;9.820;2023-12-22T00:48:15;4.20;99.90
8872;DHT22;4472;52.092;9.820;2023-12-22T00:51:02;4.10;99.90
8872;DHT22;4472;52.092;9.820;2023-12-22T00:53:50;4.20;99.90
8872;DHT22;4472;52.092;9.820;2023-12-22T00:56:37;4.30;99.90
8872;DHT22;4472;52.092;9.820;2023-12-22T00:59:24;4.40;99.90
8872;DHT22;4472;52.092;9.820;2023-12-22T01:02:11;4.50;99.90
8872;DHT22;4472;52.092;9.820;2023-12-22T01:04:59;4.60;99.90
8872;DHT22;4472;52.092;9.820;2023-12-22T01:07:46;4.50;99.90
8872;DHT22;4472;52.092;9.820;2023-12-22T01:10:34;4.60;99.90
8872;DHT22;4472;52.092;9.820;2023-12-22T01:13:21;4.50;99.90
8872;DHT22;4472;52.092;9.820;2023-12-22T01:16:08;4.50;99.90
8872;DHT22;4472;52.092;9.820;2023-12-22T01:18:55;4.60;99.90
8872;DHT22;4472;52.092;9.820;2023-12-22T01:24:31;4.60;99.90
8872;DHT22;4472;52.092;9.820;2023-12-22T01:27:18;4.70;99.90
8872;DHT22;4472;52.092;9.820;2023-12-22T01:30:07;4.80;99.90
8872;DHT22;4472;52.092;9.820;2023-12-22T01:32:54;4.80;99.90
8872;DHT22;4472;52.092;9.820;2023-12-22T01:35:41;4.80;99.90
8872;DHT22;4472;52.092;9.820;2023-12-22T01:38:30;4.80;99.90
8872;DHT22;4472;52.092;9.820;2023-12-22T01:41:17;4.80;99.90
8872;DHT22;4472;52.092;9.820;2023-12-22T01:44:04;4.80;99.90
8872;DHT22;4472;52.092;9.820;2023-12-22T01:46:51;4.80;99.90
8872;DHT22;4472;52.092;9.820;2023-12-22T01:49:39;4.70;99.90
8872;DHT22;4472;52.092;9.820;2023-12-22T01:52:26;4.70;99.90
8872;DHT22;4472;52.092;9.820;2023-12-22T01:55:16;4.70;99.90
8872;DHT22;4472;52.092;9.820;2023-12-22T01:58:04;4.70;99.90
8872;DHT22;4472;52.092;9.820;2023-12-22T02:00:52;4.70;99.90
8872;DHT22;4472;52.092;9.820;2023-12-22T02:03:40;4.70;99.90
8872;DHT22;4472;52.092;9.820;2023-12-22T02:06:29;4.70;99.90
8872;DHT22;4472;52.092;9.820;2023-12-22T02:09:16;4.70;99.90
8872;DHT22;4472;52.092;9.820;2023-12-22T02:12:05;4.70;99.90
8872;DHT22;4472;52.092;9.820;2023-12-22T02:14:52;4.70;99.90
8872;DHT22;4472;52.092;9.820;2023-12-22T02:17:48;4.70;99.90
8872;DHT22;4472;52.092;9.820;2023-12-22T02:20:37;4.80;99.90
8872;DHT22;4472;52.092;9.820;2023-12-22T02:23:26;4.80;99.90
8872;DHT22;4472;52.092;9.820;2023-12-22T02:26:19;4.80;99.90
8872;DHT22;4472;52.092;9.820;2023-12-22T02:29:11;4.80;99.90
8872;DHT22;4472;52.092;9.820;2023-12-22T02:32:05;4.90;99.90
8872;DHT22;4472;52.092;9.820;2023-12-22T02:34:55;4.90;99.90
8872;DHT22;4472;52.092;9.820;2023-12-22T02:37:45;4.90;99.90
8872;DHT22;4472;52.092;9.820;2023-12-22T02:40:35;4.90;99.90
8872;DHT22;4472;52.092;9.820;2023-12-22T02:43:23;5.00;99.90
8872;DHT22;4472;52.092;9.820;2023-12-22T02:46:13;4.90;99.90
8872;DHT22;4472;52.092;9.820;2023-12-22T02:49:00;4.90;99.90
8872;DHT22;4472;52.092;9.820;2023-12-22T02:51:47;4.90;99.90
8872;DHT22;4472;52.092;9.820;2023-12-22T02:54:34;4.90;99.90
8872;DHT22;4472;52.092;9.820;2023-12-22T02:57:27;4.80;99.90
8872;DHT22;4472;52.092;9.820;2023-12-22T03:00:14;4.80;99.90
8872;DHT22;4472;52.092;9.820;2023-12-22T03:03:02;4.80;99.90
8872;DHT22;4472;52.092;9.820;2023-12-22T03:05:49;4.70;99.90
8872;DHT22;4472;52.092;9.820;2023-12-22T03:08:36;4.70;99.90
8872;DHT22;4472;52.092;9.820;2023-12-22T03:11:23;4.60;99.90
8872;DHT22;4472;52.092;9.820;2023-12-22T03:14:11;4.60;99.90
8872;DHT22;4472;52.092;9.820;2023-12-22T03:16:59;4.60;99.90
8872;DHT22;4472;52.092;9.820;2023-12-22T03:19:46;5.00;99.90
8872;DHT22;4472;52.092;9.820;2023-12-22T03:22:33;4.50;99.90
8872;DHT22;4472;52.092;9.820;2023-12-22T03:25:20;4.50;99.90
8872;DHT22;4472;52.092;9.820;2023-12-22T03:28:07;4.50;99.90
8872;DHT22;4472;52.092;9.820;2023-12-22T03:30:56;4.40;99.90
8872;DHT22;4472;52.092;9.820;2023-12-22T03:33:43;4.40;99.90
8872;DHT22;4472;52.092;9.820;2023-12-22T03:36:30;4.40;99.90
8872;DHT22;4472;52.092;9.820;2023-12-22T03:39:17;4.50;99.90
8872;DHT22;4472;52.092;9.820;2023-12-22T03:42:04;4.50;99.90
8872;DHT22;4472;52.092;9.820;2023-12-22T03:44:51;4.50;99.90
8872;DHT22;4472;52.092;9.820;2023-12-22T03:47:40;4.60;99.90
8872;DHT22;4472;52.092;9.820;2023-12-22T03:50:27;4.60;99.90
8872;DHT22;4472;52.092;9.820;2023-12-22T03:53:14;4.60;99.90
8872;DHT22;4472;52.092;9.820;2023-12-22T03:56:01;4.70;99.90
8872;DHT22;4472;52.092;9.820;2023-12-22T03:58:48;4.70;99.90
8872;DHT22;4472;52.092;9.820;2023-12-22T04:01:35;4.70;99.90
8872;DHT22;4472;52.092;9.820;2023-12-22T04:04:24;4.70;99.90
8872;DHT22;4472;52.092;9.820;2023-12-22T04:07:13;4.60;99.90
8872;DHT22;4472;52.092;9.820;2023-12-22T04:10:00;4.70;99.90
8872;DHT22;4472;52.092;9.820;2023-12-22T04:12:48;4.60;99.90
8872;DHT22;4472;52.092;9.820;2023-12-22T04:15:35;4.60;99.90
8872;DHT22;4472;52.092;9.820;2023-12-22T04:18:22;4.70;99.90
8872;DHT22;4472;52.092;9.820;2023-12-22T04:21:10;4.70;99.90
8872;DHT22;4472;52.092;9.820;2023-12-22T04:23:58;4.70;99.90
8872;DHT22;4472;52.092;9.820;2023-12-22T04:26:45;4.80;99.90
8872;DHT22;4472;52.092;9.820;2023-12-22T04:29:32;4.80;99.90
8872;DHT22;4472;52.092;9.820;2023-12-22T04:32:19;4.80;99.90
8872;DHT22;4472;52.092;9.820;2023-12-22T04:35:07;4.80;99.90
8872;DHT22;4472;52.092;9.820;2023-12-22T04:37:55;4.90;99.90
8872;DHT22;4472;52.092;9.820;2023-12-22T04:40:42;4.90;99.90
8872;DHT22;4472;52.092;9.820;2023-12-22T04:43:29;4.90;99.90
8872;DHT22;4472;52.092;9.820;2023-12-22T04:46:16;4.90;99.90
8872;DHT22;4472;52.092;9.820;2023-12-22T04:49:03;5.00;99.90
8872;DHT22;4472;52.092;9.820;2023-12-22T04:51:51;5.00;99.90
8872;DHT22;4472;52.092;9.820;2023-12-22T04:54:39;5.00;99.90
8872;DHT22;4472;52.092;9.820;2023-12-22T04:57:26;5.00;99.90
8872;DHT22;4472;52.092;9.820;2023-12-22T05:00:14;4.90;99.90
8872;DHT22;4472;52.092;9.820;2023-12-22T05:03:01;5.00;99.90
8872;DHT22;4472;52.092;9.820;2023-12-22T05:05:49;5.00;99.90
8872;DHT22;4472;52.092;9.820;2023-12-22T05:08:36;5.00;99.90
8872;DHT22;4472;52.092;9.820;2023-12-22T05:11:24;5.00;99.90
8872;DHT22;4472;52.092;9.820;2023-12-22T05:14:12;5.00;99.90
8872;DHT22;4472;52.092;9.820;2023-12-22T05:16:59;5.00;99.90
8872;DHT22;4472;52.092;9.820;2023-12-22T05:19:47;5.20;99.90
8872;DHT22;4472;52.092;9.820;2023-12-22T05:22:34;5.10;99.90
8872;DHT22;4472;52.092;9.820;2023-12-22T05:25:21;5.10;99.90
8872;DHT22;4472;52.092;9.820;2023-12-22T05:28:09;5.00;99.90
8872;DHT22;4472;52.092;9.820;2023-12-22T05:30:56;5.00;99.90
8872;DHT22;4472;52.092;9.820;2023-12-22T05:33:44;4.80;99.90
8872;DHT22;4472;52.092;9.820;2023-12-22T05:36:31;4.90;99.90
8872;DHT22;4472;52.092;9.820;2023-12-22T05:39:18;4.70;99.90
8872;DHT22;4472;52.092;9.820;2023-12-22T05:42:06;4.60;99.90
8872;DHT22;4472;52.092;9.820;2023-12-22T05:44:54;4.80;99.90
8872;DHT22;4472;52.092;9.820;2023-12-22T05:47:42;4.60;99.90
8872;DHT22;4472;52.092;9.820;2023-12-22T05:50:29;4.60;99.90
8872;DHT22;4472;52.092;9.820;2023-12-22T05:53:16;4.80;99.90
8872;DHT22;4472;52.092;9.820;2023-12-22T05:56:04;4.80;99.90
8872;DHT22;4472;52.092;9.820;2023-12-22T05:58:51;4.90;99.90
8872;DHT22;4472;52.092;9.820;2023-12-22T06:01:40;4.90;99.90
8872;DHT22;4472;52.092;9.820;2023-12-22T06:04:27;4.90;99.90
8872;DHT22;4472;52.092;9.820;2023-12-22T06:07:14;5.00;99.90
8872;DHT22;4472;52.092;9.820;2023-12-22T06:10:01;5.00;99.90
8872;DHT22;4472;52.092;9.820;2023-12-22T06:12:48;5.10;99.90
8872;DHT22;4472;52.092;9.820;2023-12-22T06:15:35;5.00;99.90
8872;DHT22;4472;52.092;9.820;2023-12-22T06:18:24;4.90;99.90
8872;DHT22;4472;52.092;9.820;2023-12-22T06:21:11;4.70;99.90
8872;DHT22;4472;52.092;9.820;2023-12-22T06:23:58;5.00;99.90
8872;DHT22;4472;52.092;9.820;2023-12-22T06:26:45;4.90;99.90
8872;DHT22;4472;52.092;9.820;2023-12-22T06:29:33;4.60;99.90
8872;DHT22;4472;52.092;9.820;2023-12-22T06:32:20;4.50;99.90
8872;DHT22;4472;52.092;9.820;2023-12-22T06:35:09;4.60;99.90
8872;DHT22;4472;52.092;9.820;2023-12-22T06:37:57;4.40;99.90
8872;DHT22;4472;52.092;9.820;2023-12-22T06:40:49;4.50;99.90
8872;DHT22;4472;52.092;9.820;2023-12-22T06:43:36;4.50;99.90
8872;DHT22;4472;52.092;9.820;2023-12-22T06:46:24;4.70;99.90
8872;DHT22;4472;52.092;9.820;2023-12-22T06:49:12;4.60;99.90
8872;DHT22;4472;52.092;9.820;2023-12-22T06:52:02;4.50;99.90
8872;DHT22;4472;52.092;9.820;2023-12-22T06:54:49;4.60;99.90
8872;DHT22;4472;52.092;9.820;2023-12-22T06:57:36;4.60;99.90
8872;DHT22;4472;52.092;9.820;2023-12-22T07:00:23;4.60;99.90
8872;DHT22;4472;52.092;9.820;2023-12-22T07:03:10;4.70;99.90
8872;DHT22;4472;52.092;9.820;2023-12-22T07:05:58;5.10;99.90
8872;DHT22;4472;52.092;9.820;2023-12-22T07:09:32;4.90;99.90
8872;DHT22;4472;52.092;9.820;2023-12-22T07:12:19;4.90;99.90
8872;DHT22;4472;52.092;9.820;2023-12-22T07:15:07;4.90;99.90
8872;DHT22;4472;52.092;9.820;2023-12-22T07:17:54;4.90;99.90
8872;DHT22;4472;52.092;9.820;2023-12-22T07:20:42;4.80;99.90
8872;DHT22;4472;52.092;9.820;2023-12-22T07:23:29;4.80;99.90
8872;DHT22;4472;52.092;9.820;2023-12-22T07:26:17;5.20;99.90
8872;DHT22;4472;52.092;9.820;2023-12-22T07:31:52;4.90;99.90
8872;DHT22;4472;52.092;9.820;2023-12-22T07:34:39;5.00;99.90
8872;DHT22;4472;52.092;9.820;2023-12-22T07:37:26;5.00;99.90
8872;DHT22;4472;52.092;9.820;2023-12-22T07:40:14;5.20;99.90
8872;DHT22;4472;52.092;9.820;2023-12-22T07:43:03;5.10;99.90
8872;DHT22;4472;52.092;9.820;2023-12-22T07:45:50;5.10;99.90
8872;DHT22;4472;52.092;9.820;2023-12-22T07:48:37;5.20;99.90
8872;DHT22;4472;52.092;9.820;2023-12-22T07:51:25;5.10;99.90
8872;DHT22;4472;52.092;9.820;2023-12-22T07:54:12;5.20;99.90
8872;DHT22;4472;52.092;9.820;2023-12-22T07:56:59;5.20;99.90
8872;DHT22;4472;52.092;9.820;2023-12-22T07:59:48;5.20;99.90
8872;DHT22;4472;52.092;9.820;2023-12-22T08:02:35;5.20;99.90
8872;DHT22;4472;52.092;9.820;2023-12-22T08:05:22;5.30;99.90
8872;DHT22;4472;52.092;9.820;2023-12-22T08:08:10;5.10;99.90
8872;DHT22;4472;52.092;9.820;2023-12-22T08:10:57;5.40;99.90
8872;DHT22;4472;52.092;9.820;2023-12-22T08:13:44;5.30;99.90
8872;DHT22;4472;52.092;9.820;2023-12-22T08:16:33;5.30;99.90
8872;DHT22;4472;52.092;9.820;2023-12-22T08:19:21;5.30;99.90
8872;DHT22;4472;52.092;9.820;2023-12-22T08:22:09;5.40;99.90
8872;DHT22;4472;52.092;9.820;2023-12-22T08:24:57;5.40;99.90
8872;DHT22;4472;52.092;9.820;2023-12-22T08:27:45;5.50;99.90
8872;DHT22;4472;52.092;9.820;2023-12-22T08:30:33;5.60;99.90
8872;DHT22;4472;52.092;9.820;2023-12-22T08:33:22;5.50;99.90
8872;DHT22;4472;52.092;9.820;2023-12-22T08:36:09;5.60;99.90
8872;DHT22;4472;52.092;9.820;2023-12-22T08:38:56;5.50;99.90
8872;DHT22;4472;52.092;9.820;2023-12-22T08:41:44;5.50;99.90
8872;DHT22;4472;52.092;9.820;2023-12-22T08:44:31;5.50;99.90
8872;DHT22;4472;52.092;9.820;2023-12-22T08:47:18;5.60;99.90
8872;DHT22;4472;52.092;9.820;2023-12-22T08:50:07;5.60;99.90
8872;DHT22;4472;52.092;9.820;2023-12-22T08:52:55;5.70;99.90
8872;DHT22;4472;52.092;9.820;2023-12-22T08:55:43;5.70;99.90
8872;DHT22;4472;52.092;9.820;2023-12-22T08:58:30;5.80;99.90
8872;DHT22;4472;52.092;9.820;2023-12-22T09:01:18;5.90;99.90
8872;DHT22;4472;52.092;9.820;2023-12-22T09:04:05;5.90;99.90
8872;DHT22;4472;52.092;9.820;2023-12-22T09:06:53;5.90;99.90
8872;DHT22;4472;52.092;9.820;2023-12-22T09:09:40;5.90;99.90
8872;DHT22;4472;52.092;9.820;2023-12-22T09:12:28;5.90;99.90
8872;DHT22;4472;52.092;9.820;2023-12-22T09:15:15;6.00;99.90
8872;DHT22;4472;52.092;9.820;2023-12-22T09:18:03;6.00;99.90
8872;DHT22;4472;52.092;9.820;2023-12-22T09:20:50;6.00;99.90
8872;DHT22;4472;52.092;9.820;2023-12-22T09:23:39;6.10;99.90
8872;DHT22;4472;52.092;9.820;2023-12-22T09:26:30;6.10;99.90
8872;DHT22;4472;52.092;9.820;2023-12-22T09:29:18;6.10;99.90
8872;DHT22;4472;52.092;9.820;2023-12-22T09:32:07;6.10;99.90
8872;DHT22;4472;52.092;9.820;2023-12-22T09:34:54;6.10;99.90
8872;DHT22;4472;52.092;9.820;2023-12-22T09:37:44;6.20;99.90
8872;DHT22;4472;52.092;9.820;2023-12-22T09:40:33;6.60;99.90
8872;DHT22;4472;52.092;9.820;2023-12-22T09:43:22;6.30;99.90
8872;DHT22;4472;52.092;9.820;2023-12-22T09:46:10;6.20;99.90
8872;DHT22;4472;52.092;9.820;2023-12-22T09:49:00;6.20;99.90
8872;DHT22;4472;52.092;9.820;2023-12-22T09:51:49;6.20;99.90
8872;DHT22;4472;52.092;9.820;2023-12-22T09:54:37;6.20;99.90
8872;DHT22;4472;52.092;9.820;2023-12-22T09:57:27;6.20;99.90
8872;DHT22;4472;52.092;9.820;2023-12-22T10:00:15;6.20;99.90
8872;DHT22;4472;52.092;9.820;2023-12-22T10:03:06;6.20;99.90
8872;DHT22;4472;52.092;9.820;2023-12-22T10:05:53;6.20;99.90
8872;DHT22;4472;52.092;9.820;2023-12-22T10:08:41;6.20;99.90
8872;DHT22;4472;52.092;9.820;2023-12-22T10:11:29;6.40;99.90
8872;DHT22;4472;52.092;9.820;2023-12-22T10:14:18;6.20;99.90
8872;DHT22;4472;52.092;9.820;2023-12-22T10:17:08;6.20;99.90
8872;DHT22;4472;52.092;9.820;2023-12-22T10:19:55;6.20;99.90
8872;DHT22;4472;52.092;9.820;2023-12-22T10:22:42;6.10;99.90
8872;DHT22;4472;52.092;9.820;2023-12-22T10:25:29;6.10;99.90
8872;DHT22;4472;52.092;9.820;2023-12-22T10:28:19;6.10;99.90
8872;DHT22;4472;52.092;9.820;2023-12-22T10:31:12;6.00;99.90
8872;DHT22;4472;52.092;9.820;2023-12-22T10:33:59;6.00;99.90
8872;DHT22;4472;52.092;9.820;2023-12-22T10:36:46;6.00;99.90
8872;DHT22;4472;52.092;9.820;2023-12-22T10:39:36;6.00;99.90
8872;DHT22;4472;52.092;9.820;2023-12-22T10:42:24;5.90;99.90
8872;DHT22;4472;52.092;9.820;2023-12-22T10:45:11;5.90;99.90
8872;DHT22;4472;52.092;9.820;2023-12-22T10:48:00;6.10;99.90
8872;DHT22;4472;52.092;9.820;2023-12-22T10:50:48;5.90;99.90
8872;DHT22;4472;52.092;9.820;2023-12-22T10:53:35;6.10;99.90
8872;DHT22;4472;52.092;9.820;2023-12-22T10:56:22;6.00;99.90
8872;DHT22;4472;52.092;9.820;2023-12-22T10:59:10;6.10;99.90
8872;DHT22;4472;52.092;9.820;2023-12-22T11:01:57;6.20;99.90
8872;DHT22;4472;52.092;9.820;2023-12-22T11:04:52;6.30;99.90
8872;DHT22;4472;52.092;9.820;2023-12-22T11:07:48;6.40;99.90
8872;DHT22;4472;52.092;9.820;2023-12-22T11:10:36;6.40;99.90
8872;DHT22;4472;52.092;9.820;2023-12-22T11:13:25;6.60;99.90
8872;DHT22;4472;52.092;9.820;2023-12-22T11:16:12;6.60;99.90
8872;DHT22;4472;52.092;9.820;2023-12-22T11:19:01;6.70;99.90
8872;DHT22;4472;52.092;9.820;2023-12-22T11:21:50;6.70;99.90
8872;DHT22;4472;52.092;9.820;2023-12-22T11:24:38;6.80;99.90
8872;DHT22;4472;52.092;9.820;2023-12-22T11:27:28;6.80;99.90
8872;DHT22;4472;52.092;9.820;2023-12-22T11:30:16;6.90;99.90
8872;DHT22;4472;52.092;9.820;2023-12-22T11:33:04;6.90;99.90
8872;DHT22;4472;52.092;9.820;2023-12-22T11:35:52;6.90;99.90
8872;DHT22;4472;52.092;9.820;2023-12-22T11:38:44;6.90;99.90
8872;DHT22;4472;52.092;9.820;2023-12-22T11:41:34;6.90;99.90
8872;DHT22;4472;52.092;9.820;2023-12-22T11:44:22;6.90;99.90
8872;DHT22;4472;52.092;9.820;2023-12-22T11:47:10;6.90;99.90
8872;DHT22;4472;52.092;9.820;2023-12-22T11:49:59;6.90;99.90
8872;DHT22;4472;52.092;9.820;2023-12-22T11:52:46;6.90;99.90
8872;DHT22;4472;52.092;9.820;2023-12-22T11:56:02;7.00;99.90
8872;DHT22;4472;52.092;9.820;2023-12-22T11:58:52;6.90;99.90
8872;DHT22;4472;52.092;9.820;2023-12-22T12:01:40;6.90;99.90
8872;DHT22;4472;52.092;9.820;2023-12-22T12:04:27;6.80;99.90
8872;DHT22;4472;52.092;9.820;2023-12-22T12:07:37;7.00;99.90
8872;DHT22;4472;52.092;9.820;2023-12-22T12:10:52;7.00;99.90
8872;DHT22;4472;52.092;9.820;2023-12-22T12:13:44;7.00;99.90
8872;DHT22;4472;52.092;9.820;2023-12-22T12:16:32;7.00;99.90
8872;DHT22;4472;52.092;9.820;2023-12-22T12:19:19;7.10;99.90
8872;DHT22;4472;52.092;9.820;2023-12-22T12:22:07;7.10;99.90
8872;DHT22;4472;52.092;9.820;2023-12-22T12:24:54;7.10;99.90
8872;DHT22;4472;52.092;9.820;2023-12-22T12:27:42;7.10;99.90
8872;DHT22;4472;52.092;9.820;2023-12-22T12:30:36;7.10;99.90
8872;DHT22;4472;52.092;9.820;2023-12-22T12:33:23;7.20;99.90
8872;DHT22;4472;52.092;9.820;2023-12-22T12:36:11;7.20;99.90
8872;DHT22;4472;52.092;9.820;2023-12-22T12:39:05;7.20;99.90
8872;DHT22;4472;52.092;9.820;2023-12-22T12:41:54;7.20;99.90
8872;DHT22;4472;52.092;9.820;2023-12-22T12:44:42;7.20;99.90
8872;DHT22;4472;52.092;9.820;2023-12-22T12:47:32;7.20;99.90
8872;DHT22;4472;52.092;9.820;2023-12-22T12:50:22;7.20;99.90
8872;DHT22;4472;52.092;9.820;2023-12-22T12:53:09;7.20;99.90
8872;DHT22;4472;52.092;9.820;2023-12-22T12:55:56;7.20;99.90
8872;DHT22;4472;52.092;9.820;2023-12-22T12:58:43;7.20;99.90
8872;DHT22;4472;52.092;9.820;2023-12-22T13:01:31;7.10;99.90
8872;DHT22;4472;52.092;9.820;2023-12-22T13:04:19;7.20;99.90
8872;DHT22;4472;52.092;9.820;2023-12-22T13:07:06;7.20;99.90
8872;DHT22;4472;52.092;9.820;2023-12-22T13:09:55;7.10;99.90
8872;DHT22;4472;52.092;9.820;2023-12-22T13:12:43;7.10;99.90
8872;DHT22;4472;52.092;9.820;2023-12-22T13:15:30;7.10;99.90
8872;DHT22;4472;52.092;9.820;2023-12-22T13:18:17;7.10;99.90
8872;DHT22;4472;52.092;9.820;2023-12-22T13:21:06;7.10;99.90
8872;DHT22;4472;52.092;9.820;2023-12-22T13:24:09;7.10;99.90
8872;DHT22;4472;52.092;9.820;2023-12-22T13:29:48;7.10;99.90
8872;DHT22;4472;52.092;9.820;2023-12-22T13:32:38;7.10;99.90
8872;DHT22;4472;52.092;9.820;2023-12-22T13:35:25;7.10;99.90
8872;DHT22;4472;52.092;9.820;2023-12-22T13:38:15;7.20;99.90
8872;DHT22;4472;52.092;9.820;2023-12-22T13:41:03;7.20;99.90
8872;DHT22;4472;52.092;9.820;2023-12-22T13:43:50;7.10;99.90
8872;DHT22;4472;52.092;9.820;2023-12-22T13:46:38;7.10;99.90
8872;DHT22;4472;52.092;9.820;2023-12-22T13:49:33;7.10;99.90
8872;DHT22;4472;52.092;9.820;2023-12-22T13:52:29;7.00;99.90
8872;DHT22;4472;52.092;9.820;2023-12-22T13:55:20;7.00;99.90
8872;DHT22;4472;52.092;9.820;2023-12-22T13:58:08;7.00;99.90
8872;DHT22;4472;52.092;9.820;2023-12-22T14:00:57;7.10;99.90
8872;DHT22;4472;52.092;9.820;2023-12-22T14:03:44;7.00;99.90
8872;DHT22;4472;52.092;9.820;2023-12-22T14:06:32;7.00;99.90
8872;DHT22;4472;52.092;9.820;2023-12-22T14:09:19;7.00;99.90
8872;DHT22;4472;52.092;9.820;2023-12-22T14:12:11;7.00;99.90
8872;DHT22;4472;52.092;9.820;2023-12-22T14:14:59;6.90;99.90
8872;DHT22;4472;52.092;9.820;2023-12-22T14:17:46;6.90;99.90
8872;DHT22;4472;52.092;9.820;2023-12-22T14:20:33;6.90;99.90
8872;DHT22;4472;52.092;9.820;2023-12-22T14:23:20;6.90;99.90
8872;DHT22;4472;52.092;9.820;2023-12-22T14:26:08;6.90;99.90
8872;DHT22;4472;52.092;9.820;2023-12-22T14:28:56;6.90;99.90
8872;DHT22;4472;52.092;9.820;2023-12-22T14:31:43;6.90;99.90
8872;DHT22;4472;52.092;9.820;2023-12-22T14:34:30;6.90;99.90
8872;DHT22;4472;52.092;9.820;2023-12-22T14:37:19;7.10;99.90
8872;DHT22;4472;52.092;9.820;2023-12-22T14:40:07;6.80;99.90
8872;DHT22;4472;52.092;9.820;2023-12-22T14:42:54;6.90;99.90
8872;DHT22;4472;52.092;9.820;2023-12-22T14:45:43;6.80;99.90
8872;DHT22;4472;52.092;9.820;2023-12-22T14:48:30;6.80;99.90
8872;DHT22;4472;52.092;9.820;2023-12-22T14:51:17;6.80;99.90
8872;DHT22;4472;52.092;9.820;2023-12-22T14:54:05;6.80;99.90
8872;DHT22;4472;52.092;9.820;2023-12-22T14:56:52;6.80;99.90
8872;DHT22;4472;52.092;9.820;2023-12-22T14:59:39;6.70;99.90
8872;DHT22;4472;52.092;9.820;2023-12-22T15:02:28;6.80;99.90
8872;DHT22;4472;52.092;9.820;2023-12-22T15:05:15;6.80;99.90
8872;DHT22;4472;52.092;9.820;2023-12-22T15:08:04;6.80;99.90
8872;DHT22;4472;52.092;9.820;2023-12-22T15:10:53;6.80;99.90
8872;DHT22;4472;52.092;9.820;2023-12-22T15:13:40;6.80;99.90
8872;DHT22;4472;52.092;9.820;2023-12-22T15:16:27;6.80;99.90
8872;DHT22;4472;52.092;9.820;2023-12-22T15:19:16;6.80;99.90
8872;DHT22;4472;52.092;9.820;2023-12-22T15:22:04;6.70;99.90
8872;DHT22;4472;52.092;9.820;2023-12-22T15:24:51;6.70;99.90
8872;DHT22;4472;52.092;9.820;2023-12-22T15:27:38;6.50;99.90
8872;DHT22;4472;52.092;9.820;2023-12-22T15:30:25;6.60;99.90
8872;DHT22;4472;52.092;9.820;2023-12-22T15:33:14;6.70;99.90
8872;DHT22;4472;52.092;9.820;2023-12-22T15:36:03;6.50;99.90
8872;DHT22;4472;52.092;9.820;2023-12-22T15:38:50;6.50;99.90
8872;DHT22;4472;52.092;9.820;2023-12-22T15:41:37;6.40;99.90
8872;DHT22;4472;52.092;9.820;2023-12-22T15:47:14;6.40;99.90
8872;DHT22;4472;52.092;9.820;2023-12-22T15:50:02;6.40;99.90
8872;DHT22;4472;52.092;9.820;2023-12-22T15:52:50;6.50;99.90
8872;DHT22;4472;52.092;9.820;2023-12-22T15:55:37;6.50;99.90
8872;DHT22;4472;52.092;9.820;2023-12-22T15:58:25;6.50;99.90
8872;DHT22;4472;52.092;9.820;2023-12-22T16:01:12;6.50;99.90
8872;DHT22;4472;52.092;9.820;2023-12-22T16:04:00;6.50;99.90
8872;DHT22;4472;52.092;9.820;2023-12-22T16:06:47;6.50;99.90
8872;DHT22;4472;52.092;9.820;2023-12-22T16:09:36;6.60;99.90
8872;DHT22;4472;52.092;9.820;2023-12-22T16:12:23;6.60;99.90
8872;DHT22;4472;52.092;9.820;2023-12-22T16:15:10;6.60;99.90
8872;DHT22;4472;52.092;9.820;2023-12-22T16:17:57;6.60;99.90
8872;DHT22;4472;52.092;9.820;2023-12-22T16:20:44;6.70;99.90
8872;DHT22;4472;52.092;9.820;2023-12-22T16:23:32;6.90;99.90
8872;DHT22;4472;52.092;9.820;2023-12-22T16:26:20;6.70;99.90
8872;DHT22;4472;52.092;9.820;2023-12-22T16:29:08;6.70;99.90
8872;DHT22;4472;52.092;9.820;2023-12-22T16:31:55;6.70;99.90
8872;DHT22;4472;52.092;9.820;2023-12-22T16:34:42;6.70;99.90
8872;DHT22;4472;52.092;9.820;2023-12-22T16:37:30;6.80;99.90
8872;DHT22;4472;52.092;9.820;2023-12-22T16:40:17;6.80;99.90
8872;DHT22;4472;52.092;9.820;2023-12-22T16:43:05;6.80;99.90
8872;DHT22;4472;52.092;9.820;2023-12-22T16:45:53;6.90;99.90
8872;DHT22;4472;52.092;9.820;2023-12-22T16:48:40;6.90;99.90
8872;DHT22;4472;52.092;9.820;2023-12-22T16:51:27;6.90;99.90
8872;DHT22;4472;52.092;9.820;2023-12-22T16:54:14;6.90;99.90
8872;DHT22;4472;52.092;9.820;2023-12-22T16:57:01;6.90;99.90
8872;DHT22;4472;52.092;9.820;2023-12-22T16:59:50;7.00;99.90
8872;DHT22;4472;52.092;9.820;2023-12-22T17:02:37;7.00;99.90
8872;DHT22;4472;52.092;9.820;2023-12-22T17:05:24;7.00;99.90
8872;DHT22;4472;52.092;9.820;2023-12-22T17:08:12;7.00;99.90
8872;DHT22;4472;52.092;9.820;2023-12-22T17:10:59;7.00;99.90
8872;DHT22;4472;52.092;9.820;2023-12-22T17:13:46;7.00;99.90
8872;DHT22;4472;52.092;9.820;2023-12-22T17:16:35;7.00;99.90
8872;DHT22;4472;52.092;9.820;2023-12-22T17:19:22;7.00;99.90
8872;DHT22;4472;52.092;9.820;2023-12-22T17:22:09;7.00;99.90
8872;DHT22;4472;52.092;9.820;2023-12-22T17:24:56;7.00;99.90
8872;DHT22;4472;52.092;9.820;2023-12-22T17:30:31;7.10;99.90
8872;DHT22;4472;52.092;9.820;2023-12-22T17:33:20;7.10;99.90
8872;DHT22;4472;52.092;9.820;2023-12-22T17:36:08;7.10;99.90
8872;DHT22;4472;52.092;9.820;2023-12-22T17:38:57;6.90;99.90
8872;DHT22;4472;52.092;9.820;2023-12-22T17:41:44;7.00;99.90
8872;DHT22;4472;52.092;9.820;2023-12-22T17:44:31;7.10;99.90
8872;DHT22;4472;52.092;9.820;2023-12-22T17:47:18;7.10;99.90
8872;DHT22;4472;52.092;9.820;2023-12-22T17:50:08;7.00;99.90
8872;DHT22;4472;52.092;9.820;2023-12-22T17:52:55;7.00;99.90
8872;DHT22;4472;52.092;9.820;2023-12-22T17:55:42;6.90;99.90
8872;DHT22;4472;52.092;9.820;2023-12-22T17:58:29;6.90;99.90
8872;DHT22;4472;52.092;9.820;2023-12-22T18:01:16;6.90;99.90
8872;DHT22;4472;52.092;9.820;2023-12-22T18:04:04;6.90;99.90
8872;DHT22;4472;52.092;9.820;2023-12-22T18:06:53;6.90;99.90
8872;DHT22;4472;52.092;9.820;2023-12-22T18:09:40;6.90;99.90
8872;DHT22;4472;52.092;9.820;2023-12-22T18:12:27;6.90;99.90
8872;DHT22;4472;52.092;9.820;2023-12-22T18:15:17;7.00;99.90
8872;DHT22;4472;52.092;9.820;2023-12-22T18:18:04;7.00;99.90
8872;DHT22;4472;52.092;9.820;2023-12-22T18:20:52;6.80;99.90
8872;DHT22;4472;52.092;9.820;2023-12-22T18:23:40;6.00;99.90
8872;DHT22;4472;52.092;9.820;2023-12-22T18:26:27;4.90;99.90
8872;DHT22;4472;52.092;9.820;2023-12-22T18:29:14;4.30;99.90
8872;DHT22;4472;52.092;9.820;2023-12-22T18:32:02;4.00;99.90
8872;DHT22;4472;52.092;9.820;2023-12-22T18:34:50;3.90;99.90
8872;DHT22;4472;52.092;9.820;2023-12-22T18:37:37;3.80;99.90
8872;DHT22;4472;52.092;9.820;2023-12-22T18:40:26;3.80;99.90
8872;DHT22;4472;52.092;9.820;2023-12-22T18:43:13;3.80;99.90
8872;DHT22;4472;52.092;9.820;2023-12-22T18:46:00;3.80;99.90
8872;DHT22;4472;52.092;9.820;2023-12-22T18:48:47;3.80;99.90